createdAt,value
2018-07-13T00:02:03.784Z,15.90
2018-07-13T00:04:32.300Z,15.80
2018-07-13T00:07:02.036Z,15.90
2018-07-13T00:09:30.900Z,15.80
2018-07-13T00:11:59.419Z,15.80
2018-07-13T00:14:27.927Z,15.90
2018-07-13T00:16:57.661Z,16.00
2018-07-13T00:19:26.527Z,16.10
2018-07-13T00:21:55.052Z,16.00
2018-07-13T00:24:24.609Z,15.80
2018-07-13T00:26:53.128Z,15.80
2018-07-13T00:29:21.667Z,15.70
2018-07-13T00:31:51.179Z,15.70
2018-07-13T00:34:19.696Z,15.80
2018-07-13T00:36:48.201Z,15.70
2018-07-13T00:39:17.350Z,15.60
2018-07-13T00:41:46.493Z,15.60
2018-07-13T00:44:14.995Z,15.50
2018-07-13T00:46:43.554Z,15.40
2018-07-13T00:49:12.081Z,15.30
2018-07-13T00:51:40.606Z,15.30
2018-07-13T00:54:09.143Z,15.30
2018-07-13T00:56:37.919Z,15.20
2018-07-13T00:59:06.416Z,15.20
2018-07-13T01:01:34.937Z,15.10
2018-07-13T01:04:03.478Z,15.00
2018-07-13T01:06:32.028Z,14.80
2018-07-13T01:09:00.598Z,14.60
2018-07-13T01:11:29.157Z,14.40
2018-07-13T01:13:57.671Z,14.30
2018-07-13T01:16:26.228Z,14.20
2018-07-13T01:18:54.766Z,14.10
2018-07-13T01:21:23.348Z,14.10
2018-07-13T01:23:52.446Z,14.10
2018-07-13T01:26:21.989Z,14.00
2018-07-13T01:28:50.745Z,14.00
2018-07-13T01:31:19.289Z,13.90
2018-07-13T01:33:47.864Z,13.80
2018-07-13T01:36:16.391Z,13.80
2018-07-13T01:38:45.197Z,13.70
2018-07-13T01:41:13.706Z,13.70
2018-07-13T01:43:42.248Z,13.60
2018-07-13T01:46:10.780Z,13.60
2018-07-13T01:48:39.268Z,13.50
2018-07-13T01:51:08.142Z,13.50
2018-07-13T01:53:36.723Z,13.50
2018-07-13T01:56:05.303Z,13.50
2018-07-13T01:58:33.875Z,13.50
2018-07-13T02:01:02.431Z,13.50
2018-07-13T02:03:30.963Z,13.40
2018-07-13T02:05:59.515Z,13.30
2018-07-13T02:08:28.029Z,13.30
2018-07-13T02:10:56.541Z,13.30
2018-07-13T02:13:25.057Z,13.30
2018-07-13T02:15:53.619Z,13.30
2018-07-13T02:18:22.183Z,13.20
2018-07-13T02:20:50.708Z,13.20
2018-07-13T02:23:19.452Z,13.30
2018-07-13T02:25:47.983Z,13.20
2018-07-13T02:28:16.499Z,13.20
2018-07-13T02:30:45.065Z,13.20
2018-07-13T02:33:13.618Z,13.10
2018-07-13T02:35:43.051Z,13.00
2018-07-13T02:38:11.584Z,13.00
2018-07-13T02:40:40.110Z,13.00
2018-07-13T02:43:08.737Z,12.90
2018-07-13T02:45:37.269Z,12.90
2018-07-13T02:48:06.750Z,12.80
2018-07-13T02:50:35.280Z,12.80
2018-07-13T02:53:03.842Z,12.70
2018-07-13T02:55:32.358Z,12.70
2018-07-13T02:58:00.870Z,12.60
2018-07-13T03:00:29.428Z,12.60
2018-07-13T03:02:57.923Z,12.50
2018-07-13T03:05:26.472Z,12.50
2018-07-13T03:07:55.013Z,12.50
2018-07-13T03:10:23.526Z,12.50
2018-07-13T03:12:52.050Z,12.50
2018-07-13T03:15:20.596Z,12.40
2018-07-13T03:17:49.132Z,12.40
2018-07-13T03:20:17.660Z,12.30
2018-07-13T03:22:46.193Z,12.30
2018-07-13T03:25:14.695Z,12.30
2018-07-13T03:27:43.554Z,12.30
2018-07-13T03:30:12.132Z,12.30
2018-07-13T03:32:40.681Z,12.30
2018-07-13T03:35:09.232Z,12.30
2018-07-13T03:37:37.823Z,12.40
2018-07-13T03:40:06.342Z,12.40
2018-07-13T03:42:34.830Z,12.40
2018-07-13T03:45:03.382Z,12.60
2018-07-13T03:47:31.896Z,12.50
2018-07-13T03:50:00.419Z,12.50
2018-07-13T03:52:29.048Z,12.40
2018-07-13T03:54:57.630Z,12.40
2018-07-13T03:57:26.180Z,12.40
2018-07-13T03:59:54.699Z,12.40
2018-07-13T04:02:23.248Z,12.40
2018-07-13T04:04:51.825Z,12.50
2018-07-13T04:07:20.369Z,12.50
2018-07-13T04:09:48.899Z,12.60
2018-07-13T04:12:17.416Z,12.70
2018-07-13T04:14:45.973Z,12.80
2018-07-13T04:17:14.499Z,13.00
2018-07-13T04:19:43.668Z,13.10
2018-07-13T04:22:12.384Z,13.30
2018-07-13T04:24:40.976Z,13.50
2018-07-13T04:27:09.834Z,13.60
2018-07-13T04:32:06.717Z,13.80
2018-07-13T04:34:35.251Z,13.80
2018-07-13T04:37:03.837Z,13.90
2018-07-13T04:39:32.392Z,14.10
2018-07-13T04:42:00.919Z,14.20
2018-07-13T04:44:29.475Z,14.50
2018-07-13T04:46:58.048Z,14.50
2018-07-13T04:49:26.666Z,14.70
2018-07-13T04:51:55.309Z,14.80
2018-07-13T04:54:23.903Z,15.00
2018-07-13T04:56:52.561Z,15.10
2018-07-13T04:59:21.131Z,15.20
2018-07-13T05:01:49.799Z,15.30
2018-07-13T05:04:18.400Z,15.40
2018-07-13T05:06:47.039Z,15.60
2018-07-13T05:09:15.859Z,15.70
2018-07-13T05:11:44.422Z,15.90
2018-07-13T05:14:13.085Z,16.20
2018-07-13T05:16:41.673Z,16.10
2018-07-13T05:19:10.205Z,16.20
2018-07-13T05:21:38.834Z,16.30
2018-07-13T05:24:07.462Z,16.40
2018-07-13T05:26:36.076Z,16.30
2018-07-13T05:29:04.763Z,16.20
2018-07-13T05:31:33.372Z,16.30
2018-07-13T05:34:01.962Z,16.30
2018-07-13T05:36:30.588Z,16.30
2018-07-13T05:38:59.192Z,16.20
2018-07-13T05:41:27.768Z,16.40
2018-07-13T05:43:56.429Z,16.40
2018-07-13T05:46:25.079Z,16.60
2018-07-13T05:48:53.663Z,16.60
2018-07-13T05:51:22.264Z,16.70
2018-07-13T05:53:50.920Z,16.90
2018-07-13T05:58:47.746Z,17.50
2018-07-13T06:01:16.357Z,17.80
2018-07-13T06:03:44.955Z,17.60
2018-07-13T06:08:41.845Z,18.00
2018-07-13T06:11:10.474Z,17.90
2018-07-13T06:13:39.017Z,17.70
2018-07-13T06:16:07.563Z,17.90
2018-07-13T06:18:36.097Z,18.20
2018-07-13T06:21:04.659Z,18.20
2018-07-13T06:23:33.221Z,18.60
2018-07-13T06:26:01.756Z,18.80
2018-07-13T06:28:30.378Z,19.30
2018-07-13T06:30:58.905Z,19.20
2018-07-13T06:33:27.671Z,19.00
2018-07-13T06:35:56.307Z,19.00
2018-07-13T06:38:24.875Z,19.50
2018-07-13T06:40:53.515Z,19.50
2018-07-13T06:43:22.142Z,19.40
2018-07-13T06:45:50.710Z,19.80
2018-07-13T06:48:19.294Z,20.10
2018-07-13T06:50:48.034Z,20.30
2018-07-13T06:53:17.214Z,20.80
2018-07-13T06:55:45.866Z,20.90
2018-07-13T06:59:27.436Z,21.20
2018-07-13T07:01:56.101Z,21.50
2018-07-13T07:06:58.438Z,23.50
2018-07-13T07:09:27.578Z,23.30
2018-07-13T07:13:03.252Z,23.10
2018-07-13T07:15:31.896Z,23.60
2018-07-13T07:18:00.487Z,23.30
2018-07-13T07:20:29.082Z,23.30
2018-07-13T07:22:57.633Z,23.90
2018-07-13T07:25:26.652Z,24.60
2018-07-13T07:27:55.189Z,24.40
2018-07-13T07:30:23.750Z,23.50
2018-07-13T07:32:52.265Z,23.90
2018-07-13T07:35:20.810Z,24.00
2018-07-13T07:37:49.391Z,22.90
2018-07-13T07:40:18.023Z,22.70
2018-07-13T07:42:46.635Z,23.30
2018-07-13T07:45:15.236Z,25.10
2018-07-13T07:47:43.767Z,25.90
2018-07-13T07:50:12.351Z,26.60
2018-07-13T07:52:40.939Z,26.20
2018-07-13T07:55:09.482Z,25.00
2018-07-13T07:57:38.250Z,25.30
2018-07-13T08:00:06.837Z,25.80
2018-07-13T08:02:36.050Z,25.10
2018-07-13T08:05:04.954Z,25.30
2018-07-13T08:07:33.609Z,25.70
2018-07-13T08:10:02.195Z,26.30
2018-07-13T08:12:31.703Z,26.20
2018-07-13T08:15:00.251Z,26.40
2018-07-13T08:17:28.845Z,27.00
2018-07-13T08:19:58.553Z,27.70
2018-07-13T08:22:37.848Z,27.30
2018-07-13T08:25:08.007Z,27.70
2018-07-13T08:27:44.890Z,27.20
2018-07-13T08:30:20.191Z,27.70
2018-07-13T08:32:48.670Z,27.90
2018-07-13T08:35:17.521Z,28.00
2018-07-13T08:37:47.033Z,28.60
2018-07-13T08:40:15.627Z,28.30
2018-07-13T08:42:44.226Z,28.00
2018-07-13T08:45:12.895Z,28.00
2018-07-13T08:47:41.449Z,27.10
2018-07-13T08:50:10.018Z,27.00
2018-07-13T08:52:38.687Z,27.10
2018-07-13T08:55:10.826Z,26.80
2018-07-13T08:57:40.348Z,26.80
2018-07-13T09:00:09.115Z,27.40
2018-07-13T09:02:38.440Z,27.30
2018-07-13T09:05:07.294Z,27.70
2018-07-13T09:07:36.624Z,27.30
2018-07-13T09:10:07.980Z,26.90
2018-07-13T09:15:04.920Z,27.60
2018-07-13T09:17:33.631Z,28.10
2018-07-13T09:20:02.175Z,28.50
2018-07-13T09:22:30.743Z,28.50
2018-07-13T09:25:00.146Z,29.80
2018-07-13T09:27:28.749Z,30.60
2018-07-13T09:29:58.465Z,30.40
2018-07-13T09:32:27.023Z,29.80
2018-07-13T09:34:56.206Z,30.30
2018-07-13T09:37:24.903Z,31.60
2018-07-13T09:39:53.460Z,32.30
2018-07-13T09:42:22.072Z,31.80
2018-07-13T09:44:50.632Z,30.10
2018-07-13T09:47:19.188Z,30.80
2018-07-13T09:49:47.719Z,31.20
2018-07-13T09:52:17.444Z,31.20
2018-07-13T09:54:45.998Z,31.30
2018-07-13T09:57:14.525Z,30.90
2018-07-13T09:59:43.177Z,30.30
2018-07-13T10:02:11.822Z,30.70
2018-07-13T10:04:41.357Z,31.50
2018-07-13T10:07:09.941Z,32.80
2018-07-13T10:09:38.514Z,33.40
2018-07-13T10:12:07.108Z,33.10
2018-07-13T10:14:36.722Z,31.80
2018-07-13T10:17:05.266Z,31.10
2018-07-13T10:19:34.386Z,30.10
2018-07-13T10:22:03.029Z,30.50
2018-07-13T10:24:32.997Z,30.90
2018-07-13T10:27:01.693Z,31.70
2018-07-13T10:29:36.471Z,30.80
2018-07-13T10:32:05.083Z,31.20
2018-07-13T10:34:33.969Z,31.30
2018-07-13T10:37:03.991Z,32.40
2018-07-13T10:39:33.072Z,33.20
2018-07-13T10:42:01.831Z,33.40
2018-07-13T10:44:30.440Z,33.80
2018-07-13T10:46:59.056Z,33.00
2018-07-13T10:49:27.702Z,32.90
2018-07-13T10:51:56.278Z,32.10
2018-07-13T10:54:24.813Z,31.80
2018-07-13T10:56:54.379Z,32.50
2018-07-13T10:59:24.139Z,32.80
2018-07-13T11:01:52.642Z,33.60
2018-07-13T11:04:21.166Z,33.00
2018-07-13T11:06:49.746Z,33.60
2018-07-13T11:09:18.240Z,33.90
2018-07-13T11:11:46.838Z,34.90
2018-07-13T11:14:15.407Z,35.60
2018-07-13T11:16:43.938Z,35.70
2018-07-13T11:19:12.474Z,34.50
2018-07-13T11:21:41.015Z,34.50
2018-07-13T11:24:09.559Z,33.80
2018-07-13T11:26:38.122Z,33.90
2018-07-13T11:29:07.358Z,33.00
2018-07-13T11:31:35.928Z,33.00
2018-07-13T11:36:33.732Z,33.80
2018-07-13T11:39:02.293Z,33.70
2018-07-13T11:41:30.857Z,34.40
2018-07-13T11:43:59.403Z,34.00
2018-07-13T11:46:27.913Z,34.30
2018-07-13T11:48:56.418Z,34.80
2018-07-13T11:51:24.950Z,34.40
2018-07-13T11:53:54.292Z,34.40
2018-07-13T11:56:22.778Z,33.80
2018-07-13T11:58:51.363Z,33.50
2018-07-13T12:01:19.908Z,32.50
2018-07-13T12:03:48.449Z,32.90
2018-07-13T12:06:17.003Z,33.40
2018-07-13T12:08:45.585Z,32.90
2018-07-13T12:11:14.099Z,33.60
2018-07-13T12:13:42.680Z,33.30
2018-07-13T12:16:11.241Z,33.60
2018-07-13T12:18:39.766Z,33.60
2018-07-13T12:21:08.383Z,33.50
2018-07-13T12:23:37.021Z,34.50
2018-07-13T12:26:05.622Z,35.30
2018-07-13T12:28:34.174Z,35.30
2018-07-13T12:31:02.716Z,35.00
2018-07-13T12:33:31.227Z,34.70
2018-07-13T12:35:59.824Z,34.20
2018-07-13T12:38:29.242Z,33.80
2018-07-13T12:40:57.789Z,33.30
2018-07-13T12:43:26.362Z,33.50
2018-07-13T12:45:54.933Z,33.90
2018-07-13T12:50:51.696Z,36.60
2018-07-13T12:53:20.217Z,37.40
2018-07-13T12:55:48.708Z,36.80
2018-07-13T12:58:17.265Z,37.20
2018-07-13T13:00:46.571Z,37.80
2018-07-13T13:03:15.304Z,38.20
2018-07-13T13:05:44.076Z,37.00
2018-07-13T13:08:12.606Z,36.60
2018-07-13T13:10:41.115Z,36.70
2018-07-13T13:13:09.663Z,36.10
2018-07-13T13:15:38.173Z,35.50
2018-07-13T13:18:08.414Z,36.20
2018-07-13T13:20:36.982Z,36.40
2018-07-13T13:23:05.484Z,36.20
2018-07-13T13:25:34.040Z,35.30
2018-07-13T13:28:02.571Z,35.10
2018-07-13T13:30:31.296Z,35.20
2018-07-13T13:32:59.859Z,36.20
2018-07-13T13:35:28.490Z,35.80
2018-07-13T13:37:57.072Z,36.50
2018-07-13T13:40:25.597Z,36.90
2018-07-13T13:42:54.132Z,37.30
2018-07-13T13:45:22.688Z,37.00
2018-07-13T13:47:51.270Z,37.10
2018-07-13T13:50:19.848Z,35.70
2018-07-13T13:52:48.370Z,35.40
2018-07-13T13:55:17.237Z,35.00
2018-07-13T13:57:45.828Z,35.80
2018-07-13T14:00:14.341Z,35.70
2018-07-13T14:02:42.946Z,35.60
2018-07-13T14:05:11.511Z,35.10
2018-07-13T14:07:40.043Z,34.60
2018-07-13T14:10:08.874Z,33.70
2018-07-13T14:12:37.540Z,33.30
2018-07-13T14:15:06.090Z,33.60
2018-07-13T14:17:34.644Z,34.90
2018-07-13T14:20:03.228Z,33.00
2018-07-13T14:22:32.604Z,31.40
2018-07-13T14:25:01.154Z,30.50
2018-07-13T14:27:29.694Z,31.40
2018-07-13T14:29:58.205Z,33.10
2018-07-13T14:32:26.724Z,34.60
2018-07-13T14:34:55.285Z,35.20
2018-07-13T14:37:24.997Z,36.20
2018-07-13T14:39:53.559Z,35.80
2018-07-13T14:42:22.160Z,36.00
2018-07-13T14:44:50.709Z,35.70
2018-07-13T14:47:19.240Z,36.10
2018-07-13T14:49:48.953Z,35.90
2018-07-13T14:52:17.493Z,36.10
2018-07-13T14:54:46.130Z,35.50
2018-07-13T14:57:14.711Z,34.40
2018-07-13T14:59:43.225Z,34.90
2018-07-13T15:02:11.788Z,35.10
2018-07-13T15:04:40.396Z,34.60
2018-07-13T15:07:08.940Z,34.50
2018-07-13T15:09:37.470Z,34.10
2018-07-13T15:12:06.943Z,33.90
2018-07-13T15:14:35.495Z,33.90
2018-07-13T15:17:04.016Z,34.10
2018-07-13T15:19:32.561Z,34.00
2018-07-13T15:22:01.080Z,33.60
2018-07-13T15:24:29.607Z,33.70
2018-07-13T15:26:58.204Z,33.60
2018-07-13T15:29:26.768Z,33.20
2018-07-13T15:31:55.311Z,33.30
2018-07-13T15:34:24.239Z,33.80
2018-07-13T15:36:53.696Z,33.70
2018-07-13T15:39:22.271Z,34.10
2018-07-13T15:41:50.846Z,34.50
2018-07-13T15:44:19.394Z,34.00
2018-07-13T15:46:47.961Z,33.40
2018-07-13T15:49:16.761Z,33.60
2018-07-13T15:51:45.285Z,33.60
2018-07-13T15:54:14.331Z,32.80
2018-07-13T15:56:42.894Z,32.60
2018-07-13T15:59:11.457Z,32.20
2018-07-13T16:01:39.961Z,32.40
2018-07-13T16:04:08.729Z,32.00
2018-07-13T16:06:37.499Z,32.40
2018-07-13T16:09:06.334Z,32.50
2018-07-13T16:11:34.881Z,32.70
2018-07-13T16:14:03.557Z,32.70
2018-07-13T16:16:32.108Z,32.60
2018-07-13T16:19:00.654Z,31.90
2018-07-13T16:21:29.196Z,32.20
2018-07-13T16:23:57.759Z,31.50
2018-07-13T16:26:26.312Z,31.60
2018-07-13T16:28:55.484Z,31.50
2018-07-13T16:31:24.052Z,31.30
2018-07-13T16:33:52.654Z,31.20
2018-07-13T16:36:21.225Z,30.80
2018-07-13T16:38:49.749Z,30.50
2018-07-13T16:41:18.306Z,29.30
2018-07-13T16:43:46.820Z,28.70
2018-07-13T16:46:15.404Z,28.10
2018-07-13T16:48:43.986Z,27.80
2018-07-13T16:51:12.494Z,27.50
2018-07-13T16:53:41.061Z,27.00
2018-07-13T16:56:09.699Z,26.70
2018-07-13T16:58:38.454Z,26.60
2018-07-13T17:01:06.972Z,26.50
2018-07-13T17:03:35.649Z,26.60
2018-07-13T17:06:04.282Z,26.70
2018-07-13T17:08:32.831Z,26.80
2018-07-13T17:11:03.716Z,26.90
2018-07-13T17:13:32.240Z,26.70
2018-07-13T17:16:00.771Z,26.90
2018-07-13T17:18:29.331Z,27.10
2018-07-13T17:20:57.868Z,27.00
2018-07-13T17:23:27.321Z,27.10
2018-07-13T17:25:55.964Z,27.30
2018-07-13T17:28:25.469Z,27.30
2018-07-13T17:30:54.038Z,27.40
2018-07-13T17:33:22.566Z,27.60
2018-07-13T17:35:51.084Z,27.70
2018-07-13T17:38:19.630Z,27.80
2018-07-13T17:40:48.278Z,28.00
2018-07-13T17:43:17.589Z,27.80
2018-07-13T17:45:46.137Z,27.70
2018-07-13T17:48:14.739Z,27.70
2018-07-13T17:50:43.320Z,27.60
2018-07-13T17:53:11.893Z,27.60
2018-07-13T17:55:40.444Z,27.50
2018-07-13T17:58:08.947Z,27.30
2018-07-13T18:00:38.040Z,27.10
2018-07-13T18:03:07.270Z,26.70
2018-07-13T18:05:36.151Z,26.60
2018-07-13T18:08:04.656Z,26.40
2018-07-13T18:10:33.276Z,26.40
2018-07-13T18:13:02.075Z,26.30
2018-07-13T18:15:30.900Z,26.40
2018-07-13T18:17:59.440Z,26.20
2018-07-13T18:22:56.825Z,25.90
2018-07-13T18:25:26.155Z,25.80
2018-07-13T18:27:54.666Z,25.60
2018-07-13T18:30:23.191Z,25.40
2018-07-13T18:32:51.742Z,25.30
2018-07-13T18:35:20.261Z,25.10
2018-07-13T18:37:50.794Z,24.90
2018-07-13T18:40:19.345Z,24.60
2018-07-13T18:45:16.182Z,24.30
2018-07-13T18:47:44.718Z,24.10
2018-07-13T18:50:13.267Z,24.00
2018-07-13T18:52:42.301Z,23.90
2018-07-13T18:55:11.601Z,23.90
2018-07-13T18:57:40.138Z,23.80
2018-07-13T19:00:08.750Z,23.70
2018-07-13T19:02:37.332Z,23.70
2018-07-13T19:05:06.783Z,23.70
2018-07-13T19:07:35.290Z,23.70
2018-07-13T19:10:04.637Z,23.70
2018-07-13T19:12:33.249Z,23.60
2018-07-13T19:15:01.832Z,23.60
2018-07-13T19:17:30.387Z,23.40
2018-07-13T19:19:58.895Z,23.30
2018-07-13T19:22:27.463Z,23.10
2018-07-13T19:24:56.305Z,22.90
2018-07-13T19:27:24.815Z,22.70
2018-07-13T19:29:53.344Z,22.50
2018-07-13T19:32:22.659Z,22.20
2018-07-13T19:34:51.186Z,22.10
2018-07-13T19:37:19.718Z,22.00
2018-07-13T19:39:48.319Z,21.80
2018-07-13T19:42:16.874Z,21.70
2018-07-13T19:44:45.414Z,21.50
2018-07-13T19:47:13.961Z,21.40
2018-07-13T19:49:42.480Z,21.20
2018-07-13T19:52:12.085Z,21.10
2018-07-13T19:54:40.633Z,21.00
2018-07-13T19:57:09.177Z,20.90
2018-07-13T19:59:37.702Z,20.80
2018-07-13T20:02:08.213Z,20.60
2018-07-13T20:04:37.406Z,20.50
2018-07-13T20:07:09.416Z,20.40
2018-07-13T20:09:37.921Z,20.20
2018-07-13T20:12:06.947Z,20.00
2018-07-13T20:14:35.525Z,19.90
2018-07-13T20:17:04.198Z,19.80
2018-07-13T20:19:32.925Z,19.70
2018-07-13T20:22:01.489Z,19.90
2018-07-13T20:24:30.001Z,20.10
2018-07-13T20:26:58.759Z,20.00
2018-07-13T20:29:27.366Z,20.10
2018-07-13T20:31:55.912Z,20.20
2018-07-13T20:34:24.433Z,20.10
2018-07-13T20:36:55.018Z,20.20
2018-07-13T20:39:23.578Z,20.10
2018-07-13T20:41:52.518Z,20.00
2018-07-13T20:44:21.068Z,19.90
2018-07-13T20:46:49.674Z,19.80
2018-07-13T20:49:18.304Z,19.60
2018-07-13T20:51:46.881Z,19.40
2018-07-13T20:54:16.694Z,19.30
2018-07-13T20:56:45.201Z,19.20
2018-07-13T20:59:14.416Z,19.00
2018-07-13T21:01:43.048Z,18.90
2018-07-13T21:04:11.726Z,18.80
2018-07-13T21:06:40.337Z,18.70
2018-07-13T21:09:08.954Z,18.70
2018-07-13T21:11:37.502Z,18.60
2018-07-13T21:14:06.573Z,18.50
2018-07-13T21:16:35.101Z,18.40
2018-07-13T21:19:03.712Z,18.30
2018-07-13T21:21:32.284Z,18.30
2018-07-13T21:24:00.839Z,18.20
2018-07-13T21:26:29.521Z,18.20
2018-07-13T21:28:58.180Z,18.10
2018-07-13T21:31:28.141Z,18.20
2018-07-13T21:33:56.786Z,18.30
2018-07-13T21:36:28.171Z,18.30
2018-07-13T21:38:56.753Z,18.30
2018-07-13T21:41:25.958Z,18.30
2018-07-13T21:43:54.502Z,18.30
2018-07-13T21:46:23.034Z,18.30
2018-07-13T21:48:52.813Z,18.40
2018-07-13T21:51:21.423Z,18.30
2018-07-13T21:53:49.982Z,18.30
2018-07-13T21:56:18.548Z,18.30
2018-07-13T21:58:47.070Z,18.30
2018-07-13T22:01:15.677Z,18.30
2018-07-13T22:03:44.243Z,18.20
2018-07-13T22:06:12.878Z,18.10
2018-07-13T22:08:41.494Z,18.00
2018-07-13T22:11:10.042Z,17.90
2018-07-13T22:13:38.620Z,17.70
2018-07-13T22:16:07.258Z,17.70
2018-07-13T22:18:35.822Z,17.80
2018-07-13T22:21:04.360Z,17.70
2018-07-13T22:23:32.924Z,17.60
2018-07-13T22:26:01.442Z,17.50
2018-07-13T22:28:30.858Z,17.40
2018-07-13T22:30:59.478Z,17.30
2018-07-13T22:33:27.960Z,17.30
2018-07-13T22:35:56.503Z,17.40
2018-07-13T22:38:25.016Z,17.50
2018-07-13T22:40:53.523Z,17.40
2018-07-13T22:43:22.070Z,17.40
2018-07-13T22:45:50.589Z,17.40
2018-07-13T22:48:19.962Z,17.40
2018-07-13T22:50:48.488Z,17.30
2018-07-13T22:55:47.356Z,17.00
2018-07-13T22:58:15.902Z,16.80
2018-07-13T23:00:45.588Z,16.80
2018-07-13T23:03:14.794Z,16.70
2018-07-13T23:08:11.692Z,16.50
2018-07-13T23:10:40.253Z,16.40
2018-07-13T23:13:08.847Z,16.40
2018-07-13T23:15:37.370Z,16.30
2018-07-13T23:18:06.597Z,16.30
2018-07-13T23:20:35.241Z,16.30
2018-07-13T23:23:03.857Z,16.30
2018-07-13T23:25:32.423Z,16.30
2018-07-13T23:28:00.963Z,16.20
2018-07-13T23:30:30.241Z,16.20
2018-07-13T23:32:58.809Z,16.20
2018-07-13T23:35:27.436Z,16.20
2018-07-13T23:37:55.973Z,16.20
2018-07-13T23:40:24.526Z,16.10
2018-07-13T23:42:53.073Z,16.10
2018-07-13T23:47:49.925Z,15.90
2018-07-13T23:50:18.453Z,15.90
2018-07-13T23:52:47.000Z,15.90
2018-07-13T23:55:15.516Z,15.80
2018-07-13T23:57:44.227Z,15.80
